Time;durP1;ratioP1;P1;durP2;ratioP2;P2;SDS_P1;SDS_P2;PMS_P1;PMS_P2;Temp;Humidity;BMP_temperature;BMP_pressure;BME280_temperature;BME280_humidity;BME280_pressure;Samples;Min_cycle;Max_cycle;Signal;HPM_P1;HPM_P2
2021/07/05 00:00:11;;;;;;;38.00;14.30;;;;;;;15.15;87.13;100870.63;4861696;29;20502;-92
2021/07/05 00:02:39;;;;;;;30.38;13.52;;;;;;;15.26;86.81;100867.16;4862082;29;20041;-91
2021/07/05 00:05:05;;;;;;;34.38;13.82;;;;;;;15.29;86.69;100876.75;4862829;29;20069;-91
2021/07/05 00:07:32;;;;;;;36.00;12.93;;;;;;;15.32;86.61;100866.72;4847735;29;20032;-92
2021/07/05 00:10:08;;;;;;;30.95;13.57;;;;;;;15.41;86.52;100877.66;4895950;29;20028;-92
2021/07/05 00:12:35;;;;;;;31.63;12.43;;;;;;;15.50;86.56;100868.16;4886233;29;20060;-91
2021/07/05 00:15:03;;;;;;;29.63;13.43;;;;;;;15.57;86.42;100867.59;4869692;29;20048;-90
2021/07/05 00:17:30;;;;;;;31.98;12.25;;;;;;;15.66;86.57;100870.50;4851019;29;20032;-91
2021/07/05 00:20:06;;;;;;;24.80;11.80;;;;;;;15.73;85.89;100869.09;4897338;29;20484;-92
2021/07/05 00:22:37;;;;;;;24.77;11.77;;;;;;;15.80;85.95;100862.34;4851418;29;20025;-86
2021/07/05 00:25:05;;;;;;;27.08;12.38;;;;;;;15.87;85.55;100860.06;4868905;29;20064;-91
2021/07/05 00:27:32;;;;;;;22.80;11.90;;;;;;;15.97;85.44;100862.91;4877412;29;20028;-90
2021/07/05 00:30:08;;;;;;;25.27;12.75;;;;;;;16.02;85.11;100860.75;4888976;24;20064;-92
2021/07/05 00:32:45;;;;;;;25.25;11.65;;;;;;;16.09;84.53;100869.16;4903199;23;20821;-85
2021/07/05 00:35:12;;;;;;;22.63;11.43;;;;;;;16.13;84.16;100861.75;4900484;29;20056;-85
2021/07/05 00:37:38;;;;;;;25.48;11.20;;;;;;;16.16;83.68;100862.34;4881931;29;20076;-85
2021/07/05 00:40:07;;;;;;;22.10;11.98;;;;;;;16.24;83.64;100863.59;4901532;29;20056;-84
2021/07/05 00:42:34;;;;;;;19.20;11.15;;;;;;;16.24;82.85;100860.94;4918548;29;20240;-85
2021/07/05 00:44:59;;;;;;;19.10;10.77;;;;;;;16.31;82.65;100857.69;4900155;29;20110;-85
2021/07/05 00:47:25;;;;;;;18.40;10.30;;;;;;;16.31;82.13;100860.34;4914533;29;20057;-85
2021/07/05 00:49:51;;;;;;;19.52;10.10;;;;;;;16.39;82.20;100861.56;4917939;29;20093;-85
2021/07/05 00:52:17;;;;;;;16.85;10.38;;;;;;;16.38;82.33;100860.69;4902314;29;20043;-86
2021/07/05 00:54:43;;;;;;;16.50;10.27;;;;;;;16.43;82.71;100863.88;4872514;29;20051;-85
2021/07/05 00:57:20;;;;;;;18.42;10.77;;;;;;;16.49;82.60;100853.69;4919873;29;20032;-85
2021/07/05 00:59:49;;;;;;;17.15;11.65;;;;;;;16.44;82.72;100846.06;4904465;29;20060;-86
2021/07/05 01:02:18;;;;;;;20.20;11.40;;;;;;;16.55;82.51;100850.53;4901092;29;20033;-87
2021/07/05 01:04:46;;;;;;;20.38;11.55;;;;;;;16.60;82.13;100852.84;4898599;29;20032;-85
2021/07/05 01:07:14;;;;;;;20.45;12.13;;;;;;;16.58;82.50;100844.09;4890795;29;20088;-86
2021/07/05 01:09:40;;;;;;;20.60;12.02;;;;;;;16.48;82.64;100839.50;4906774;29;20044;-85
2021/07/05 01:12:06;;;;;;;18.67;12.88;;;;;;;16.57;82.01;100840.56;4906448;29;20060;-86
2021/07/05 01:14:31;;;;;;;22.38;12.80;;;;;;;16.48;82.11;100839.50;4905267;29;20357;-87
2021/07/05 01:16:58;;;;;;;20.90;12.73;;;;;;;16.53;82.01;100840.00;4888403;29;20322;-87
2021/07/05 01:19:26;;;;;;;20.02;12.85;;;;;;;16.47;82.38;100845.81;4906781;29;20056;-87
2021/07/05 01:21:52;;;;;;;19.98;12.45;;;;;;;16.50;82.45;100828.69;4874023;29;20080;-86
2021/07/05 01:24:18;;;;;;;23.10;13.32;;;;;;;16.56;82.42;100823.72;4887543;29;20073;-87
2021/07/05 01:26:44;;;;;;;20.75;12.98;;;;;;;16.59;82.21;100824.44;4887376;29;20552;-87
2021/07/05 01:29:09;;;;;;;20.65;12.63;;;;;;;16.58;81.82;100825.41;4904298;29;20024;-88
2021/07/05 01:31:35;;;;;;;19.60;12.20;;;;;;;16.55;82.26;100815.84;4887258;29;20032;-85
2021/07/05 01:34:06;;;;;;;24.67;13.00;;;;;;;16.54;82.35;100812.31;4887340;29;20053;-87
2021/07/05 01:36:33;;;;;;;18.90;11.77;;;;;;;16.48;82.59;100806.59;4872601;29;20048;-87
2021/07/05 01:38:58;;;;;;;22.60;12.25;;;;;;;16.49;82.47;100802.97;4841383;29;20473;-88
2021/07/05 01:41:24;;;;;;;18.75;12.05;;;;;;;16.40;82.46;100794.72;4871948;29;20138;-89
2021/07/05 01:43:50;;;;;;;18.20;11.07;;;;;;;16.38;82.23;100795.81;4886490;29;20109;-89
2021/07/05 01:46:16;;;;;;;18.25;10.18;;;;;;;16.20;82.45;100793.63;4887441;29;20464;-89
2021/07/05 01:48:42;;;;;;;17.02;9.45;;;;;;;16.29;82.13;100789.38;4857155;29;20035;-88
2021/07/05 01:51:07;;;;;;;19.48;10.60;;;;;;;16.31;82.12;100785.63;4857307;29;20036;-87
2021/07/05 01:53:33;;;;;;;15.80;9.82;;;;;;;16.24;82.23;100794.25;4872816;29;20063;-85
2021/07/05 01:55:59;;;;;;;17.25;10.18;;;;;;;16.18;81.75;100799.06;4886787;29;20421;-87
2021/07/05 01:58:24;;;;;;;16.83;9.02;;;;;;;16.25;82.55;100798.59;4886003;29;20038;-86
2021/07/05 02:00:52;;;;;;;15.82;10.25;;;;;;;16.13;82.42;100798.56;4870755;29;20028;-87
2021/07/05 02:03:18;;;;;;;17.92;9.85;;;;;;;16.24;82.06;100808.41;4870555;29;20076;-88
2021/07/05 02:05:45;;;;;;;15.98;9.63;;;;;;;16.19;82.18;100802.59;4886100;29;20048;-87
2021/07/05 02:08:15;;;;;;;15.40;9.40;;;;;;;16.06;82.64;100792.88;4885840;29;20053;-86
2021/07/05 02:10:40;;;;;;;20.02;9.52;;;;;;;16.11;82.10;100791.66;4885537;29;20381;-86
2021/07/05 02:13:17;;;;;;;16.00;8.13;;;;;;;16.06;81.57;100802.69;4870579;29;20029;-86
2021/07/05 02:15:42;;;;;;;11.80;7.18;;;;;;;16.03;81.45;100800.25;4902583;29;20532;-86
2021/07/05 02:18:09;;;;;;;11.32;6.32;;;;;;;16.06;81.19;100805.38;4902704;29;20032;-85
2021/07/05 02:20:38;;;;;;;11.48;5.45;;;;;;;16.02;81.50;100802.06;4902597;29;20040;-84
2021/07/05 02:23:05;;;;;;;15.07;5.75;;;;;;;16.05;81.13;100798.34;4903305;29;20088;-86
2021/07/05 02:25:31;;;;;;;14.30;5.80;;;;;;;16.01;80.68;100803.06;4903284;29;20028;-86
2021/07/05 02:27:59;;;;;;;15.20;5.28;;;;;;;16.09;80.57;100789.13;4885717;29;20048;-86
2021/07/05 02:30:25;;;;;;;10.82;5.28;;;;;;;16.02;80.50;100801.25;4886047;29;20119;-86
2021/07/05 02:32:51;;;;;;;12.98;5.28;;;;;;;16.03;80.72;100792.25;4902377;29;20048;-86
2021/07/05 02:35:18;;;;;;;10.43;5.00;;;;;;;16.03;80.41;100795.78;4902400;29;20056;-85
2021/07/05 02:37:44;;;;;;;15.43;5.38;;;;;;;15.98;80.08;100789.94;4902951;29;20047;-85
2021/07/05 02:40:11;;;;;;;15.45;5.03;;;;;;;16.04;79.97;100799.28;4903006;29;20040;-86
2021/07/05 02:42:39;;;;;;;12.68;5.03;;;;;;;16.02;79.81;100795.91;4902667;29;20499;-86
2021/07/05 02:45:09;;;;;;;13.65;4.75;;;;;;;16.09;79.21;100796.25;4885776;29;20163;-85
2021/07/05 02:47:34;;;;;;;10.55;4.63;;;;;;;16.10;79.32;100788.13;4902501;29;20056;-86
2021/07/05 02:50:00;;;;;;;14.60;4.90;;;;;;;16.17;79.16;100785.84;4886317;29;20043;-86
2021/07/05 02:52:25;;;;;;;15.13;5.35;;;;;;;16.14;79.17;100792.28;4902797;29;20043;-86
2021/07/05 02:54:51;;;;;;;15.85;5.30;;;;;;;15.99;79.64;100788.97;4902736;29;20027;-86
2021/07/05 02:57:31;;;;;;;13.38;5.80;;;;;;;15.98;79.80;100795.28;4886054;29;20472;-86
2021/07/05 03:00:06;;;;;;;12.40;4.78;;;;;;;15.93;79.61;100794.75;4906220;29;20040;-88
2021/07/05 03:02:32;;;;;;;11.57;5.47;;;;;;;15.98;79.64;100797.94;4907331;29;20036;-87
2021/07/05 03:04:58;;;;;;;15.82;5.18;;;;;;;15.99;79.63;100801.44;4922241;29;20060;-87
2021/07/05 03:07:23;;;;;;;13.70;5.53;;;;;;;15.99;79.59;100799.63;4918134;29;20033;-86
2021/07/05 03:09:49;;;;;;;14.68;5.22;;;;;;;15.94;79.90;100794.63;4910564;29;20060;-87
2021/07/05 03:12:16;;;;;;;14.20;5.35;;;;;;;15.94;79.70;100785.78;4893174;29;20092;-87
2021/07/05 03:14:42;;;;;;;14.63;5.82;;;;;;;15.90;79.65;100779.84;4896958;29;20113;-85
2021/07/05 03:17:08;;;;;;;12.50;5.57;;;;;;;15.87;80.18;100790.75;4920148;29;20013;-86
2021/07/05 03:19:33;;;;;;;17.00;6.32;;;;;;;15.79;80.05;100785.13;4899601;29;20044;-86
2021/07/05 03:21:59;;;;;;;16.42;6.07;;;;;;;15.84;80.03;100782.13;4916025;29;20058;-85
2021/07/05 03:24:26;;;;;;;16.08;5.63;;;;;;;15.83;80.30;100786.59;4913355;29;20029;-85
2021/07/05 03:26:51;;;;;;;15.20;5.75;;;;;;;15.76;79.91;100775.56;4911423;29;20544;-87
2021/07/05 03:29:18;;;;;;;16.40;5.63;;;;;;;15.76;79.92;100786.22;4919534;29;20100;-87
2021/07/05 03:31:44;;;;;;;15.93;5.95;;;;;;;15.76;79.78;100785.38;4919558;29;20036;-86
2021/07/05 03:34:10;;;;;;;14.30;5.63;;;;;;;15.88;79.38;100787.09;4921280;29;20084;-86
2021/07/05 03:36:37;;;;;;;16.08;6.03;;;;;;;15.82;79.36;100793.75;4921675;29;20048;-84
2021/07/05 03:39:04;;;;;;;22.92;6.53;;;;;;;15.80;79.72;100793.03;4897178;29;20028;-87
2021/07/05 03:41:29;;;;;;;16.30;5.78;;;;;;;15.88;79.20;100781.78;4918218;29;20056;-84
2021/07/05 03:43:55;;;;;;;15.73;5.63;;;;;;;15.79;79.23;100787.81;4918027;29;20036;-84
2021/07/05 03:46:20;;;;;;;12.77;5.18;;;;;;;15.90;78.76;100787.84;4921755;29;20028;-85
2021/07/05 03:48:46;;;;;;;16.23;5.07;;;;;;;15.85;78.92;100782.00;4922202;29;20020;-85
2021/07/05 03:51:11;;;;;;;13.30;5.57;;;;;;;15.81;79.37;100791.22;4906696;29;20041;-85
2021/07/05 03:53:39;;;;;;;16.45;5.80;;;;;;;15.85;78.95;100782.00;4921342;29;20028;-86
2021/07/05 03:56:05;;;;;;;15.20;5.40;;;;;;;15.79;78.96;100778.00;4906521;29;20025;-85
2021/07/05 03:58:33;;;;;;;13.45;5.80;;;;;;;15.89;78.37;100786.13;4920978;29;20024;-85
2021/07/05 04:01:01;;;;;;;13.68;5.82;;;;;;;15.81;78.51;100778.72;4905200;29;20072;-85
2021/07/05 04:03:30;;;;;;;13.63;5.45;;;;;;;15.86;78.24;100797.03;4922458;29;20020;-85
2021/07/05 04:05:58;;;;;;;16.73;6.20;;;;;;;15.81;78.78;100801.88;4892177;29;20060;-85
2021/07/05 04:08:26;;;;;;;16.95;5.75;;;;;;;15.83;78.95;100794.59;4907703;29;20040;-85
2021/07/05 04:10:54;;;;;;;16.60;5.88;;;;;;;15.84;79.07;100801.66;4921328;29;20096;-85
2021/07/05 04:13:22;;;;;;;14.15;5.57;;;;;;;15.82;79.30;100800.91;4922407;29;20017;-85
2021/07/05 04:15:48;;;;;;;18.95;6.20;;;;;;;15.82;79.09;100803.56;4923059;29;20066;-85
2021/07/05 04:18:14;;;;;;;16.20;6.25;;;;;;;15.70;79.53;100808.03;4923357;29;20024;-86
2021/07/05 04:20:39;;;;;;;12.23;5.22;;;;;;;15.78;79.22;100821.59;4923488;29;20035;-86
2021/07/05 04:23:05;;;;;;;14.70;6.25;;;;;;;15.70;79.73;100806.19;4923403;29;20013;-86
2021/07/05 04:25:30;;;;;;;12.65;5.50;;;;;;;15.67;79.72;100809.09;4918459;29;20044;-86
2021/07/05 04:27:55;;;;;;;17.98;6.05;;;;;;;15.66;80.38;100817.19;4907238;29;20100;-85
2021/07/05 04:30:21;;;;;;;17.20;6.32;;;;;;;15.68;80.27;100809.94;4922763;29;20024;-84
2021/07/05 04:32:50;;;;;;;15.90;6.68;;;;;;;15.60;80.50;100810.53;4928778;23;20025;-89
2021/07/05 04:35:18;;;;;;;14.10;6.90;;;;;;;15.57;80.29;100803.63;4845322;29;20555;-88
2021/07/05 04:37:44;;;;;;;13.15;6.80;;;;;;;15.49;80.62;100810.47;4895951;29;20120;-86
2021/07/05 04:40:16;;;;;;;15.95;6.97;;;;;;;15.58;80.14;100791.13;4863063;29;20070;-88
2021/07/05 04:42:45;;;;;;;17.33;6.75;;;;;;;15.67;80.37;100786.94;4852354;29;20033;-90
2021/07/05 04:45:15;;;;;;;18.52;7.88;;;;;;;15.74;79.52;100777.50;4873123;29;20073;-89
2021/07/05 04:47:41;;;;;;;18.65;8.07;;;;;;;15.77;79.74;100787.06;4889357;29;20033;-90
2021/07/05 04:50:09;;;;;;;15.93;7.60;;;;;;;15.63;79.77;100794.31;4866420;29;20025;-90
2021/07/05 04:52:35;;;;;;;14.30;7.72;;;;;;;15.56;79.65;100780.56;4863942;29;20130;-91
2021/07/05 04:55:00;;;;;;;13.77;7.30;;;;;;;15.61;79.78;100774.91;4843699;29;20376;-88
2021/07/05 04:57:26;;;;;;;16.00;7.72;;;;;;;15.59;79.84;100784.84;4888809;29;20051;-92
2021/07/05 04:59:52;;;;;;;16.95;9.07;;;;;;;15.53;79.79;100782.66;4872699;29;20048;-90
2021/07/05 05:02:22;;;;;;;14.07;7.55;;;;;;;15.59;79.62;100789.31;4890571;29;20025;-93
2021/07/05 05:04:47;;;;;;;15.88;7.47;;;;;;;15.48;80.00;100793.66;4851385;29;20105;-90
2021/07/05 05:07:13;;;;;;;17.45;7.80;;;;;;;15.44;79.83;100790.34;4850211;29;20050;-91
2021/07/05 05:09:41;;;;;;;20.77;8.85;;;;;;;15.55;79.81;100788.69;4850952;29;20053;-93
2021/07/05 05:12:11;;;;;;;18.80;8.13;;;;;;;15.43;80.21;100809.97;4851034;29;20042;-89
2021/07/05 05:14:38;;;;;;;15.68;8.38;;;;;;;15.42;80.26;100800.28;4848393;29;20042;-90
2021/07/05 05:17:26;;;;;;;16.17;8.02;;;;;;;15.61;79.47;100798.88;4836151;29;20468;-89
2021/07/05 05:19:54;;;;;;;19.92;7.93;;;;;;;15.54;79.68;100789.66;4820539;29;20132;-91
2021/07/05 05:22:22;;;;;;;13.32;7.90;;;;;;;15.63;79.28;100785.44;4850134;29;20065;-87
2021/07/05 05:24:49;;;;;;;17.92;8.05;;;;;;;15.63;79.44;100780.97;4848548;29;20045;-90
2021/07/05 05:27:15;;;;;;;16.50;7.30;;;;;;;15.52;79.14;100783.59;4835361;29;20033;-88
2021/07/05 05:29:44;;;;;;;21.38;8.57;;;;;;;15.66;79.20;100790.53;4835794;29;20038;-90
2021/07/05 05:32:09;;;;;;;21.08;9.07;;;;;;;15.66;79.08;100790.53;4835551;29;20494;-91
2021/07/05 05:34:36;;;;;;;19.05;8.35;;;;;;;15.64;79.07;100780.00;4824623;29;20069;-89
2021/07/05 05:37:03;;;;;;;18.85;8.52;;;;;;;15.67;78.91;100776.28;4817063;29;20060;-90
2021/07/05 05:39:30;;;;;;;16.25;8.02;;;;;;;15.56;79.09;100771.75;4832327;29;20035;-93
2021/07/05 05:42:07;;;;;;;19.00;8.63;;;;;;;15.73;78.81;100765.13;4832487;29;20034;-91
2021/07/05 05:44:35;;;;;;;15.32;7.80;;;;;;;15.84;78.67;100766.97;4827918;29;20031;-88
2021/07/05 05:47:01;;;;;;;15.52;7.93;;;;;;;15.79;78.55;100761.16;4831387;29;20046;-88
2021/07/05 05:49:27;;;;;;;14.80;7.80;;;;;;;15.93;78.23;100773.41;4816107;29;20144;-91
2021/07/05 05:51:59;;;;;;;14.80;8.13;;;;;;;15.99;78.31;100770.31;4831665;29;20058;-92
2021/07/05 05:54:25;;;;;;;14.35;8.93;;;;;;;16.01;78.34;100767.53;4841242;29;20049;-93
2021/07/05 05:56:54;;;;;;;16.80;8.40;;;;;;;15.98;78.24;100760.63;4870160;29;20029;-91
2021/07/05 05:59:22;;;;;;;16.02;7.82;;;;;;;15.96;77.69;100765.19;4854243;29;20033;-91
2021/07/05 06:01:50;;;;;;;20.73;8.05;;;;;;;16.05;77.49;100774.34;4852664;29;20052;-90
2021/07/05 06:04:17;;;;;;;17.05;8.18;;;;;;;15.99;77.40;100772.97;4823313;29;20029;-91
2021/07/05 06:06:42;;;;;;;15.68;7.97;;;;;;;16.06;77.14;100771.53;4870371;29;20503;-90
2021/07/05 06:09:08;;;;;;;16.17;8.13;;;;;;;15.98;77.26;100784.63;4823264;29;20128;-90
2021/07/05 06:11:36;;;;;;;16.35;7.90;;;;;;;15.91;77.52;100781.53;4869912;29;20026;-90
2021/07/05 06:14:04;;;;;;;14.68;7.68;;;;;;;15.82;77.64;100784.91;4836706;29;20030;-90
2021/07/05 06:16:30;;;;;;;19.15;8.05;;;;;;;16.00;77.01;100793.38;4868906;29;20086;-89
2021/07/05 06:18:55;;;;;;;17.08;7.63;;;;;;;16.15;76.15;100796.66;4855579;29;20124;-90
2021/07/05 06:21:28;;;;;;;11.98;6.80;;;;;;;16.35;75.36;100788.06;4840942;29;20094;-91
2021/07/05 06:23:58;;;;;;;19.48;8.18;;;;;;;16.68;74.48;100794.34;4871983;29;20085;-88
2021/07/05 06:26:24;;;;;;;18.75;7.70;;;;;;;16.66;73.88;100781.13;4872050;29;20025;-90
2021/07/05 06:28:51;;;;;;;15.38;6.97;;;;;;;16.70;73.60;100789.75;4854821;29;20049;-90
2021/07/05 06:31:20;;;;;;;12.13;6.93;;;;;;;16.76;73.67;100793.72;4856038;29;20040;-90
2021/07/05 06:33:47;;;;;;;16.20;7.72;;;;;;;16.55;73.87;100802.50;4842836;29;20054;-91
2021/07/05 06:36:14;;;;;;;15.88;7.45;;;;;;;16.72;73.89;100803.81;4838070;29;20060;-90
2021/07/05 06:38:39;;;;;;;17.95;7.43;;;;;;;16.84;73.26;100807.31;4850321;29;20105;-90
2021/07/05 06:41:05;;;;;;;18.33;7.53;;;;;;;16.56;73.72;100804.19;4849466;29;20062;-90
2021/07/05 06:43:30;;;;;;;17.48;7.03;;;;;;;16.88;73.25;100813.28;4851004;29;20026;-91
2021/07/05 06:45:56;;;;;;;12.75;7.18;;;;;;;16.84;72.74;100811.81;4821266;29;20037;-91
2021/07/05 06:48:21;;;;;;;13.48;7.18;;;;;;;16.89;72.35;100820.31;4851394;29;20077;-90
2021/07/05 06:50:47;;;;;;;13.48;6.85;;;;;;;16.85;73.32;100824.19;4851013;29;20121;-90
2021/07/05 06:53:13;;;;;;;16.75;7.30;;;;;;;16.98;73.28;100827.56;4836365;29;20048;-91
2021/07/05 06:55:38;;;;;;;12.80;7.13;;;;;;;16.84;73.45;100823.34;4805345;29;20085;-90
2021/07/05 06:58:03;;;;;;;14.15;6.82;;;;;;;17.04;72.07;100812.84;4878164;29;20081;-91
2021/07/05 07:00:29;;;;;;;16.85;7.55;;;;;;;17.05;72.00;100814.59;4853930;29;20029;-92
2021/07/05 07:02:55;;;;;;;12.02;7.07;;;;;;;17.29;71.70;100810.88;4852765;29;20116;-91
2021/07/05 07:05:21;;;;;;;13.55;6.72;;;;;;;17.27;71.44;100810.19;4857294;29;20029;-94
2021/07/05 07:07:58;;;;;;;16.42;7.15;;;;;;;17.26;70.94;100816.47;4832311;29;20032;-93
2021/07/05 07:11:00;;;;;;;12.90;6.22;;;;;;;17.28;71.67;100815.41;4846648;29;20056;-93
2021/07/05 07:41:33;;;;;;;14.43;6.50;;;;;;;18.31;67.48;100832.78;4912660;24;20541;-93
2021/07/05 07:44:19;;;;;;;16.98;6.38;;;;;;;18.71;65.90;100828.47;4807589;29;20140;-88
2021/07/05 07:46:45;;;;;;;13.50;5.80;;;;;;;18.42;67.44;100824.66;4808370;29;20030;-89
2021/07/05 07:49:12;;;;;;;15.48;6.30;;;;;;;18.12;68.69;100830.84;4793415;29;20039;-90
2021/07/05 07:51:37;;;;;;;11.60;5.68;;;;;;;18.24;68.02;100836.97;4810161;29;20035;-89
2021/07/05 07:54:06;;;;;;;15.48;5.30;;;;;;;18.09;66.22;100833.75;4809057;29;20050;-89
2021/07/05 07:56:31;;;;;;;13.75;5.15;;;;;;;18.33;66.24;100833.50;4807601;29;20034;-90
2021/07/05 07:58:59;;;;;;;15.38;5.28;;;;;;;18.41;66.21;100833.69;4793716;29;20051;-91
2021/07/05 08:01:24;;;;;;;17.65;5.22;;;;;;;18.33;66.24;100833.50;4793172;29;20051;-91
2021/07/05 08:03:51;;;;;;;11.15;5.20;;;;;;;18.41;66.50;100840.88;4808300;29;20059;-91
2021/07/05 08:06:17;;;;;;;10.13;4.32;;;;;;;18.30;66.47;100841.78;4807622;29;20035;-91
2021/07/05 08:08:49;;;;;;;12.30;5.10;;;;;;;18.08;66.98;100832.91;4808452;29;20070;-91
2021/07/05 08:11:18;;;;;;;14.20;5.20;;;;;;;18.46;65.57;100832.44;4792990;29;20035;-91
2021/07/05 08:13:43;;;;;;;13.52;5.55;;;;;;;18.59;65.52;100835.72;4791205;29;20027;-90
2021/07/05 08:16:09;;;;;;;13.93;5.13;;;;;;;18.66;65.06;100841.41;4853626;29;20048;-90
2021/07/05 08:18:34;;;;;;;11.30;4.80;;;;;;;18.67;65.44;100843.13;4869815;29;20040;-90
2021/07/05 08:21:03;;;;;;;16.50;5.40;;;;;;;18.47;65.22;100832.28;4886746;29;20404;-88
2021/07/05 08:23:30;;;;;;;14.65;5.55;;;;;;;18.65;64.45;100829.81;4855059;29;20029;-89
2021/07/05 08:25:58;;;;;;;13.98;5.45;;;;;;;18.66;64.76;100833.38;4869803;29;20080;-90
2021/07/05 08:28:24;;;;;;;12.55;4.78;;;;;;;18.68;64.64;100837.63;4886343;29;20029;-90
2021/07/05 08:30:53;;;;;;;14.00;5.70;;;;;;;18.41;65.16;100827.47;4886082;29;20031;-91
2021/07/05 08:33:21;;;;;;;16.65;6.32;;;;;;;18.44;65.72;100832.56;4923174;24;20061;-86
2021/07/05 08:35:46;;;;;;;9.35;5.00;;;;;;;18.98;64.17;100839.53;4821901;29;20041;-86
2021/07/05 08:38:12;;;;;;;12.82;5.53;;;;;;;18.93;63.91;100840.81;4852827;29;20040;-88
2021/07/05 08:40:38;;;;;;;11.30;5.60;;;;;;;18.90;63.06;100834.88;4852680;29;20491;-85
2021/07/05 08:43:03;;;;;;;13.88;6.10;;;;;;;18.99;62.97;100844.75;4885045;29;20021;-86
2021/07/05 08:45:29;;;;;;;12.52;5.13;;;;;;;19.28;60.93;100840.50;4887608;29;20487;-90
2021/07/05 08:47:55;;;;;;;14.85;5.82;;;;;;;19.92;58.77;100832.84;4847827;29;20056;-87
2021/07/05 08:50:22;;;;;;;13.18;5.00;;;;;;;20.56;57.88;100834.13;4872641;29;20029;-85
2021/07/05 08:52:47;;;;;;;14.82;4.88;;;;;;;20.59;57.53;100843.72;4885006;29;20033;-83
2021/07/05 08:55:15;;;;;;;15.00;5.25;;;;;;;20.17;58.68;100835.09;4885090;29;20029;-84
2021/07/05 08:57:41;;;;;;;13.57;4.93;;;;;;;20.13;57.55;100831.03;4883970;29;20096;-84
2021/07/05 09:00:17;;;;;;;14.80;5.43;;;;;;;20.44;55.75;100841.53;4884737;29;20620;-84
2021/07/05 09:02:45;;;;;;;;;;;;;;;20.14;58.01;100847.00;4867082;29;20033;-85
2021/07/05 09:05:10;;;;;;;11.07;4.70;;;;;;;19.89;58.30;100837.66;4867027;29;19957;-86
2021/07/05 09:08:01;;;;;;;14.38;5.00;;;;;;;19.94;59.26;100843.44;4866973;29;20416;-85
2021/07/05 09:10:27;;;;;;;12.63;4.88;;;;;;;20.59;57.72;100835.66;4883470;29;20486;-85
2021/07/05 09:13:10;;;;;;;12.80;4.70;;;;;;;20.96;56.58;100842.88;4883046;29;20469;-86
2021/07/05 09:15:45;;;;;;;11.32;4.78;;;;;;;20.18;57.23;100839.47;4866977;29;20033;-85
2021/07/05 09:18:50;;;;;;;12.35;5.20;;;;;;;20.83;56.05;100821.72;4883348;29;20028;-85
2021/07/05 09:21:33;;;;;;;13.20;4.60;;;;;;;22.08;52.16;100827.44;4862235;29;20050;-88
2021/07/05 09:24:01;;;;;;;11.25;4.60;;;;;;;23.07;49.25;100827.09;4862453;29;20086;-85
2021/07/05 09:26:31;;;;;;;15.52;4.78;;;;;;;23.41;48.25;100830.72;4862749;29;20041;-85
2021/07/05 09:28:58;;;;;;;12.95;4.57;;;;;;;22.64;49.64;100832.47;4846993;29;20612;-84
2021/07/05 09:31:44;;;;;;;12.05;4.30;;;;;;;23.67;47.42;100836.97;4862525;29;20068;-87
2021/07/05 09:34:20;;;;;;;8.68;3.88;;;;;;;23.83;46.96;100825.34;4862643;29;20059;-84
2021/07/05 09:36:47;;;;;;;10.95;4.00;;;;;;;22.62;49.85;100840.72;4838191;29;20045;-85
2021/07/05 09:39:16;;;;;;;11.57;5.07;;;;;;;21.90;51.59;100831.84;4865518;29;20076;-85
2021/07/05 09:41:41;;;;;;;12.05;5.10;;;;;;;21.02;54.86;100822.63;4868309;29;20052;-85
2021/07/05 09:44:18;;;;;;;14.85;5.78;;;;;;;20.89;53.56;100836.38;4865403;29;20064;-84
2021/07/05 09:46:46;;;;;;;12.30;4.85;;;;;;;20.10;56.41;100831.31;4859323;29;20026;-84
2021/07/05 09:49:15;;;;;;;15.00;5.10;;;;;;;19.66;57.83;100832.59;4865210;29;20040;-86
2021/07/05 09:51:42;;;;;;;15.23;5.72;;;;;;;19.71;59.01;100841.06;4839155;29;20056;-84
2021/07/05 09:54:08;;;;;;;12.07;5.57;;;;;;;19.84;59.43;100850.66;4866993;29;20029;-85
2021/07/05 09:56:34;;;;;;;13.00;5.90;;;;;;;19.68;60.26;100835.97;4866448;29;20029;-84
2021/07/05 09:59:13;;;;;;;10.55;4.90;;;;;;;19.80;58.11;100845.56;4883906;29;20108;-86
2021/07/05 10:01:40;;;;;;;9.38;4.90;;;;;;;19.68;58.60;100835.97;4867020;29;20108;-85
2021/07/05 10:04:10;;;;;;;9.75;4.88;;;;;;;19.98;57.62;100844.84;4867717;29;20037;-85
2021/07/05 10:06:44;;;;;;;11.80;5.22;;;;;;;20.06;57.32;100843.31;4868594;29;20054;-84
2021/07/05 10:09:09;;;;;;;7.32;4.22;;;;;;;20.23;55.95;100855.16;4869673;29;20037;-84
2021/07/05 10:11:36;;;;;;;12.27;5.45;;;;;;;20.11;56.49;100852.66;4867867;29;20445;-85
2021/07/05 10:14:20;;;;;;;14.80;4.22;;;;;;;20.77;53.99;100844.63;4876012;29;20085;-86
2021/07/05 10:16:45;;;;;;;10.02;4.50;;;;;;;20.44;55.97;100857.66;4851176;29;20112;-84
2021/07/05 10:19:19;;;;;;;16.00;5.22;;;;;;;20.62;56.11;100848.81;4851919;29;20076;-85
2021/07/05 10:21:44;;;;;;;10.40;4.72;;;;;;;20.58;56.27;100847.41;4867891;29;20055;-85
2021/07/05 10:24:10;;;;;;;11.73;5.10;;;;;;;20.47;56.43;100846.63;4884195;29;20036;-87
2021/07/05 10:26:36;;;;;;;14.48;5.57;;;;;;;20.48;57.21;100844.75;4867602;29;20041;-85
2021/07/05 10:29:03;;;;;;;12.75;5.35;;;;;;;20.93;56.04;100845.84;4852342;29;20029;-86
2021/07/05 10:31:29;;;;;;;11.63;5.38;;;;;;;21.47;54.92;100845.09;4867586;29;20088;-84
2021/07/05 10:33:59;;;;;;;12.32;5.03;;;;;;;21.93;53.63;100830.72;4867819;29;20096;-85
2021/07/05 10:36:24;;;;;;;13.82;5.15;;;;;;;22.08;53.29;100846.28;4837335;29;20081;-85
2021/07/05 10:38:51;;;;;;;10.23;4.18;;;;;;;22.21;50.89;100841.34;4852427;29;20561;-85
2021/07/05 10:41:18;;;;;;;11.57;3.90;;;;;;;22.62;49.73;100848.81;4854463;29;20041;-85
2021/07/05 10:43:55;;;;;;;6.93;3.72;;;;;;;21.97;51.19;100850.06;4884346;29;20033;-85
2021/07/05 10:46:40;;;;;;;11.57;4.32;;;;;;;22.01;52.06;100854.97;4867883;29;20460;-83
2021/07/05 10:49:07;;;;;;;10.07;3.90;;;;;;;21.50;52.21;100843.94;4884921;29;20032;-86
2021/07/05 10:51:45;;;;;;;9.07;3.83;;;;;;;21.63;51.78;100839.03;4883658;29;20045;-85
2021/07/05 10:54:11;;;;;;;8.70;4.20;;;;;;;21.90;51.71;100848.00;4865641;29;20040;-84
2021/07/05 10:56:42;;;;;;;12.75;4.18;;;;;;;21.31;53.81;100844.91;4882252;29;20029;-87
2021/07/05 10:59:10;;;;;;;8.20;4.10;;;;;;;20.69;55.28;100828.44;4882575;29;20032;-84
2021/07/05 11:01:37;;;;;;;10.07;4.40;;;;;;;20.86;55.00;100834.84;4849822;29;20108;-84
2021/07/05 11:04:21;;;;;;;12.43;4.05;;;;;;;21.31;52.89;100842.22;4865743;29;20041;-85
2021/07/05 11:06:46;;;;;;;8.48;3.03;;;;;;;21.21;53.02;100835.06;4866564;29;20021;-85
2021/07/05 11:09:20;;;;;;;5.93;2.97;;;;;;;21.66;50.80;100851.31;4866026;29;20060;-84
2021/07/05 11:11:48;;;;;;;10.30;3.35;;;;;;;21.48;51.44;100840.56;4851241;29;20036;-85
2021/07/05 11:14:15;;;;;;;8.27;3.60;;;;;;;21.78;51.13;100847.41;4897278;29;20069;-86
2021/07/05 11:16:55;;;;;;;6.00;2.92;;;;;;;21.94;51.50;100858.47;4902403;29;20036;-83
2021/07/05 11:19:41;;;;;;;5.47;2.70;;;;;;;22.19;48.93;100853.25;4874753;29;20033;-85
2021/07/05 11:22:27;;;;;;;8.85;3.10;;;;;;;21.75;51.19;100841.47;4875291;29;20029;-84
2021/07/05 11:24:55;;;;;;;7.10;2.75;;;;;;;22.17;48.53;100837.25;4890689;29;20077;-84
2021/07/05 11:27:26;;;;;;;8.30;2.65;;;;;;;21.68;48.01;100835.03;4888955;29;20081;-84
2021/07/05 11:29:52;;;;;;;7.22;2.40;;;;;;;21.40;48.67;100826.03;4887728;29;20358;-85
2021/07/05 11:32:37;;;;;;;5.18;2.45;;;;;;;21.07;49.44;100838.31;4853700;29;20085;-84
2021/07/05 11:35:04;;;;;;;4.05;2.70;;;;;;;21.32;49.40;100841.25;4868250;29;20041;-85
2021/07/05 11:37:31;;;;;;;5.30;2.47;;;;;;;20.97;50.70;100832.97;4868833;29;20041;-85
2021/07/05 11:39:56;;;;;;;6.78;2.97;;;;;;;21.05;50.81;100833.06;4868396;29;20041;-86
2021/07/05 11:42:31;;;;;;;7.60;3.13;;;;;;;20.66;51.84;100831.41;4853332;29;20535;-85
2021/07/05 11:44:56;;;;;;;7.45;3.30;;;;;;;20.87;51.98;100836.53;4885824;29;20067;-85
2021/07/05 11:47:38;;;;;;;6.50;3.30;;;;;;;21.68;51.03;100843.09;4854084;29;20112;-86
2021/07/05 11:50:21;;;;;;;10.05;3.83;;;;;;;21.47;51.94;100838.88;4885422;29;20121;-86